createdAt,value
2023-02-17T00:00:06.396Z,81.62
2023-02-17T00:02:32.769Z,81.89
2023-02-17T00:04:59.091Z,82.54
2023-02-17T00:07:25.429Z,82.85
2023-02-17T00:09:51.732Z,82.41
2023-02-17T00:12:18.022Z,82.52
2023-02-17T00:14:44.320Z,83.02
2023-02-17T00:17:10.619Z,83.11
2023-02-17T00:19:36.914Z,83.16
2023-02-17T00:22:03.228Z,82.97
2023-02-17T00:24:31.076Z,83.42
2023-02-17T00:26:57.445Z,83.44
2023-02-17T00:29:23.842Z,83.69
2023-02-17T00:31:52.112Z,83.47
2023-02-17T00:34:18.752Z,84.22
2023-02-17T00:36:45.349Z,84.66
2023-02-17T00:39:13.786Z,84.70
2023-02-17T00:41:40.092Z,85.27
2023-02-17T00:44:06.395Z,84.93
2023-02-17T00:46:32.757Z,85.66
2023-02-17T00:48:59.082Z,86.23
2023-02-17T00:51:25.634Z,85.29
2023-02-17T00:53:52.141Z,85.69
2023-02-17T00:56:18.520Z,85.97
2023-02-17T00:58:46.132Z,86.70
2023-02-17T01:01:12.496Z,86.20
2023-02-17T01:03:40.806Z,86.40
2023-02-17T01:06:08.199Z,86.94
2023-02-17T01:08:34.548Z,87.37
2023-02-17T01:11:01.105Z,87.33
2023-02-17T01:13:27.418Z,86.93
2023-02-17T01:15:54.024Z,86.78
2023-02-17T01:18:22.105Z,87.31
2023-02-17T01:20:48.420Z,87.29
2023-02-17T01:23:15.173Z,87.53
2023-02-17T01:25:42.713Z,87.44
2023-02-17T01:28:10.769Z,87.65
2023-02-17T01:30:37.346Z,87.66
2023-02-17T01:33:03.656Z,87.86
2023-02-17T01:35:29.950Z,87.53
2023-02-17T01:37:56.269Z,87.68
2023-02-17T01:40:22.746Z,86.55
2023-02-17T01:42:49.025Z,87.97
2023-02-17T01:45:18.430Z,87.60
2023-02-17T01:47:47.763Z,87.80
2023-02-17T01:50:14.898Z,87.84
2023-02-17T01:52:41.677Z,88.67
2023-02-17T01:55:10.782Z,88.37
2023-02-17T01:57:38.174Z,89.10
2023-02-17T02:00:05.708Z,88.26
2023-02-17T02:02:32.434Z,88.57
2023-02-17T02:04:58.899Z,88.30
2023-02-17T02:07:35.692Z,88.46
2023-02-17T02:10:02.057Z,88.69
2023-02-17T02:12:33.236Z,88.99
2023-02-17T02:15:01.882Z,88.77
2023-02-17T02:17:35.309Z,88.97
2023-02-17T02:20:08.462Z,88.73
2023-02-17T02:22:43.554Z,88.06
2023-02-17T02:25:12.963Z,88.21
2023-02-17T02:27:42.416Z,88.89
2023-02-17T02:30:17.516Z,88.71
2023-02-17T02:32:48.562Z,89.25
2023-02-17T02:35:20.876Z,88.74
2023-02-17T02:37:57.014Z,89.38
2023-02-17T02:40:27.047Z,88.92
2023-02-17T02:42:54.457Z,89.58
2023-02-17T02:45:21.471Z,89.34
2023-02-17T02:47:54.756Z,89.77
2023-02-17T02:50:36.439Z,89.41
2023-02-17T02:53:08.835Z,90.13
2023-02-17T02:55:35.080Z,90.77
2023-02-17T02:58:20.304Z,89.81
2023-02-17T03:01:05.531Z,90.58
2023-02-17T03:03:51.952Z,91.14
2023-02-17T03:06:26.162Z,90.88
2023-02-17T03:09:00.940Z,90.71
2023-02-17T03:11:33.082Z,91.46
2023-02-17T03:14:03.424Z,91.27
2023-02-17T03:16:29.835Z,91.90
2023-02-17T03:18:56.154Z,91.55
2023-02-17T03:21:23.280Z,91.21
2023-02-17T03:23:49.586Z,90.83
2023-02-17T03:26:15.964Z,90.80
2023-02-17T03:28:42.286Z,90.00
2023-02-17T03:31:08.620Z,90.54
2023-02-17T03:33:34.930Z,91.17
2023-02-17T03:36:01.308Z,90.76
2023-02-17T03:38:27.595Z,90.60
2023-02-17T03:40:53.884Z,91.43
2023-02-17T03:43:20.210Z,91.28
2023-02-17T03:45:46.589Z,92.22
2023-02-17T03:48:12.910Z,91.27
2023-02-17T03:50:39.220Z,91.35
2023-02-17T03:53:05.712Z,91.18
2023-02-17T03:55:32.026Z,92.07
2023-02-17T03:57:58.350Z,91.76
2023-02-17T04:00:24.743Z,91.26
2023-02-17T04:02:51.109Z,91.68
2023-02-17T04:05:17.475Z,91.85
2023-02-17T04:07:43.808Z,92.20
2023-02-17T04:10:10.269Z,91.72
2023-02-17T04:12:36.637Z,91.95
2023-02-17T04:15:03.108Z,92.25
2023-02-17T04:17:29.371Z,92.49
2023-02-17T04:19:55.671Z,91.74
2023-02-17T04:22:22.015Z,92.70
2023-02-17T04:24:48.280Z,92.40
2023-02-17T04:27:14.626Z,91.88
2023-02-17T04:29:40.965Z,91.59
2023-02-17T04:32:07.339Z,92.11
2023-02-17T04:34:33.710Z,91.76
2023-02-17T04:37:00.019Z,91.95
2023-02-17T04:39:26.293Z,92.71
2023-02-17T04:41:52.997Z,93.03
2023-02-17T04:44:19.308Z,92.32
2023-02-17T04:46:45.611Z,92.66
2023-02-17T04:49:11.923Z,91.87
2023-02-17T04:51:38.214Z,92.25
2023-02-17T04:54:04.623Z,91.61
2023-02-17T04:56:30.971Z,92.12
2023-02-17T04:58:57.251Z,92.32
2023-02-17T05:01:23.576Z,92.62
2023-02-17T05:03:49.908Z,92.65
2023-02-17T05:06:16.172Z,92.56
2023-02-17T05:08:42.507Z,91.64
2023-02-17T05:11:08.931Z,91.67
2023-02-17T05:13:35.244Z,91.53
2023-02-17T05:16:01.552Z,91.46
2023-02-17T05:18:27.922Z,91.48
2023-02-17T05:20:54.289Z,91.18
2023-02-17T05:23:20.617Z,92.18
2023-02-17T05:25:46.943Z,92.23
2023-02-17T05:28:13.219Z,91.97
2023-02-17T05:30:39.555Z,91.23
2023-02-17T05:33:05.902Z,92.50
2023-02-17T05:35:35.083Z,92.50
2023-02-17T05:38:01.492Z,91.60
2023-02-17T05:40:27.814Z,91.58
2023-02-17T05:42:54.094Z,91.54
2023-02-17T05:45:20.398Z,91.70
2023-02-17T05:47:46.785Z,91.85
2023-02-17T05:50:13.101Z,92.77
2023-02-17T05:52:39.423Z,92.36
2023-02-17T05:55:05.941Z,92.17
2023-02-17T05:57:32.417Z,91.79
2023-02-17T05:59:58.717Z,92.03
2023-02-17T06:02:25.106Z,91.78
2023-02-17T06:04:51.494Z,92.56
2023-02-17T06:07:17.916Z,92.62
2023-02-17T06:09:46.449Z,91.20
2023-02-17T06:12:13.537Z,91.68
2023-02-17T06:14:39.861Z,91.61
2023-02-17T06:17:06.207Z,92.10
2023-02-17T06:19:32.511Z,92.01
2023-02-17T06:21:58.868Z,92.01
2023-02-17T06:24:25.387Z,91.87
2023-02-17T06:26:51.681Z,91.40
2023-02-17T06:29:18.003Z,91.61
2023-02-17T06:31:44.399Z,92.28
2023-02-17T06:34:10.805Z,91.97
2023-02-17T06:36:37.076Z,91.97
2023-02-17T06:39:03.577Z,92.98
2023-02-17T06:41:29.915Z,91.74
2023-02-17T06:43:56.243Z,93.25
2023-02-17T06:46:22.620Z,92.40
2023-02-17T06:48:48.937Z,92.56
2023-02-17T06:51:15.325Z,92.90
2023-02-17T06:53:41.708Z,92.40
2023-02-17T06:56:08.142Z,92.95
2023-02-17T06:58:36.495Z,93.54
2023-02-17T07:01:03.015Z,93.20
2023-02-17T07:03:29.589Z,93.43
2023-02-17T07:05:59.338Z,92.93
2023-02-17T07:08:25.758Z,92.98
2023-02-17T07:10:52.172Z,92.48
2023-02-17T07:13:18.530Z,92.92
2023-02-17T07:15:44.936Z,91.98
2023-02-17T07:18:11.236Z,92.62
2023-02-17T07:20:39.254Z,91.76
2023-02-17T07:23:05.854Z,92.35
2023-02-17T07:25:32.158Z,92.13
2023-02-17T07:27:59.904Z,91.31
2023-02-17T07:30:26.313Z,92.13
2023-02-17T07:32:52.628Z,91.79
2023-02-17T07:35:18.933Z,91.52
2023-02-17T07:37:45.270Z,92.27
2023-02-17T07:40:11.887Z,92.04
2023-02-17T07:42:38.210Z,92.18
2023-02-17T07:45:04.872Z,90.51
2023-02-17T07:47:32.033Z,90.26
2023-02-17T07:49:58.349Z,91.71
2023-02-17T07:52:24.685Z,90.93
2023-02-17T07:54:51.000Z,92.43
2023-02-17T07:57:17.651Z,92.11
2023-02-17T07:59:45.854Z,92.24
2023-02-17T08:02:12.424Z,91.90
2023-02-17T08:04:38.723Z,91.84
2023-02-17T08:07:05.113Z,92.93
2023-02-17T08:09:49.771Z,93.18
2023-02-17T08:12:36.108Z,91.54
2023-02-17T08:15:02.530Z,93.01
2023-02-17T08:17:29.125Z,91.79
2023-02-17T08:19:55.861Z,92.58
2023-02-17T08:22:22.515Z,93.43
2023-02-17T08:24:49.127Z,92.46
2023-02-17T08:27:15.958Z,93.05
2023-02-17T08:29:42.401Z,91.96
2023-02-17T08:32:08.886Z,91.61
2023-02-17T08:34:35.454Z,90.93
2023-02-17T08:37:02.675Z,91.28
2023-02-17T08:39:29.093Z,91.78
2023-02-17T08:41:56.075Z,93.30
2023-02-17T08:44:22.586Z,92.95
2023-02-17T08:46:49.725Z,92.66
2023-02-17T08:49:17.419Z,92.65
2023-02-17T08:51:44.111Z,92.34
2023-02-17T08:54:11.029Z,93.42
2023-02-17T08:56:39.055Z,93.53
2023-02-17T08:59:06.261Z,92.85
2023-02-17T09:01:32.747Z,92.79
2023-02-17T09:04:00.272Z,93.07
2023-02-17T09:06:33.672Z,93.44
2023-02-17T09:08:59.994Z,93.94
2023-02-17T09:11:26.323Z,93.02
2023-02-17T09:13:52.663Z,92.47
2023-02-17T09:16:20.782Z,92.66
2023-02-17T09:18:47.217Z,92.94
2023-02-17T09:21:13.801Z,94.45
2023-02-17T09:23:40.791Z,93.83
2023-02-17T09:26:08.827Z,92.82
2023-02-17T09:28:35.508Z,91.92
2023-02-17T09:31:16.789Z,92.29
2023-02-17T09:33:43.382Z,91.70
2023-02-17T09:36:12.228Z,91.30
2023-02-17T09:38:39.331Z,91.89
2023-02-17T09:41:21.220Z,93.77
2023-02-17T09:43:47.672Z,92.96
2023-02-17T09:46:20.238Z,92.90
2023-02-17T09:48:48.067Z,93.17
2023-02-17T09:51:19.792Z,93.09
2023-02-17T09:53:55.460Z,92.33
2023-02-17T09:56:24.344Z,93.16
2023-02-17T09:58:53.484Z,93.59
2023-02-17T10:01:21.192Z,92.36
2023-02-17T10:03:54.353Z,92.48
2023-02-17T10:06:26.841Z,92.85
2023-02-17T10:08:55.150Z,94.08
2023-02-17T10:11:21.641Z,92.59
2023-02-17T10:13:47.969Z,93.09
2023-02-17T10:16:21.271Z,93.91
2023-02-17T10:18:52.414Z,93.64
2023-02-17T10:21:23.759Z,94.31
2023-02-17T10:23:51.306Z,93.81
2023-02-17T10:26:26.593Z,93.16
2023-02-17T10:28:59.050Z,92.84
2023-02-17T10:31:57.906Z,93.57
2023-02-17T10:34:37.333Z,93.35
2023-02-17T10:37:12.896Z,94.18
2023-02-17T10:39:42.243Z,94.87
2023-02-17T10:42:16.834Z,93.62
2023-02-17T10:44:44.061Z,94.39
2023-02-17T10:47:10.812Z,94.47
2023-02-17T10:49:39.882Z,94.54
2023-02-17T10:52:20.432Z,94.01
2023-02-17T10:54:50.573Z,94.67
2023-02-17T10:57:17.760Z,93.61
2023-02-17T10:59:45.312Z,93.02
2023-02-17T11:02:30.522Z,93.31
2023-02-17T11:04:59.750Z,94.24
2023-02-17T11:07:46.365Z,93.32
2023-02-17T11:10:32.427Z,93.16
2023-02-17T11:12:59.862Z,92.68
2023-02-17T11:15:27.957Z,92.32
2023-02-17T11:17:54.956Z,93.15
2023-02-17T11:20:21.236Z,93.12
2023-02-17T11:22:49.128Z,92.43
2023-02-17T11:25:15.403Z,93.92
2023-02-17T11:27:49.262Z,94.07
2023-02-17T11:30:16.076Z,93.84
2023-02-17T11:32:42.458Z,92.79
2023-02-17T11:35:20.748Z,92.67
2023-02-17T11:37:47.056Z,94.33
2023-02-17T11:40:26.984Z,94.17
2023-02-17T11:42:57.667Z,92.98
2023-02-17T11:45:26.099Z,92.72
2023-02-17T11:48:08.128Z,94.04
2023-02-17T11:50:42.119Z,92.09
2023-02-17T11:53:17.800Z,92.97
2023-02-17T11:55:53.141Z,93.08
2023-02-17T11:58:31.748Z,91.83
2023-02-17T12:01:18.269Z,92.64
2023-02-17T12:03:54.174Z,93.23
2023-02-17T12:06:29.466Z,93.65
2023-02-17T12:09:10.747Z,93.46
2023-02-17T12:11:42.969Z,91.62
2023-02-17T12:14:10.740Z,93.66
2023-02-17T12:16:37.163Z,93.19
2023-02-17T12:19:06.386Z,91.95
2023-02-17T12:21:52.989Z,92.79
2023-02-17T12:24:30.243Z,91.31
2023-02-17T12:27:04.275Z,91.05
2023-02-17T12:29:41.392Z,91.12
2023-02-17T12:32:18.687Z,90.32
2023-02-17T12:34:52.777Z,91.34
2023-02-17T12:37:21.802Z,91.41
2023-02-17T12:39:54.143Z,90.45
2023-02-17T12:42:25.200Z,89.67
2023-02-17T12:44:56.571Z,90.38
2023-02-17T12:47:28.867Z,90.40
2023-02-17T12:50:00.912Z,88.66
2023-02-17T12:52:32.927Z,88.75
2023-02-17T12:55:04.752Z,89.90
2023-02-17T12:57:46.146Z,89.12
2023-02-17T13:00:20.127Z,90.21
2023-02-17T13:02:47.017Z,89.62
2023-02-17T13:05:25.261Z,89.88
2023-02-17T13:07:56.605Z,89.40
2023-02-17T13:10:25.998Z,88.11
2023-02-17T13:12:57.198Z,88.22
2023-02-17T13:15:43.459Z,90.34
2023-02-17T13:18:15.033Z,90.50
2023-02-17T13:20:56.197Z,89.73
2023-02-17T13:23:27.835Z,88.50
2023-02-17T13:26:14.585Z,88.64
2023-02-17T13:28:41.341Z,88.74
2023-02-17T13:31:20.095Z,90.45
2023-02-17T13:33:48.394Z,88.44
2023-02-17T13:36:16.976Z,90.29
2023-02-17T13:38:52.537Z,90.61
2023-02-17T13:41:18.877Z,89.32
2023-02-17T13:43:45.194Z,89.04
2023-02-17T13:46:16.166Z,90.07
2023-02-17T13:48:42.480Z,90.38
2023-02-17T13:51:23.982Z,89.54
2023-02-17T13:53:50.677Z,88.75
2023-02-17T13:56:24.944Z,90.08
2023-02-17T13:58:51.268Z,89.46
2023-02-17T14:01:19.203Z,89.32
2023-02-17T14:03:47.396Z,90.20
2023-02-17T14:06:23.171Z,89.98
2023-02-17T14:08:49.682Z,91.03
2023-02-17T14:11:21.333Z,93.19
2023-02-17T14:13:48.506Z,92.11
2023-02-17T14:16:27.743Z,91.50
2023-02-17T14:19:08.170Z,91.43
2023-02-17T14:21:35.379Z,91.66
2023-02-17T14:24:01.768Z,91.09
2023-02-17T14:26:46.415Z,91.50
2023-02-17T14:29:13.391Z,92.47
2023-02-17T14:31:41.161Z,93.44
2023-02-17T14:34:08.668Z,93.24
2023-02-17T14:36:36.431Z,93.25
2023-02-17T14:39:04.533Z,92.92
2023-02-17T14:41:30.863Z,92.39
2023-02-17T14:43:57.243Z,93.03
2023-02-17T14:46:23.636Z,94.33
2023-02-17T14:48:50.557Z,92.70
2023-02-17T14:51:21.453Z,93.05
2023-02-17T14:53:48.576Z,92.61
2023-02-17T14:56:27.039Z,93.44
2023-02-17T14:58:53.491Z,93.01
2023-02-17T15:01:21.104Z,94.19
2023-02-17T15:03:47.527Z,93.62
2023-02-17T15:06:18.196Z,94.87
2023-02-17T15:08:45.899Z,93.47
2023-02-17T15:11:17.666Z,93.68
2023-02-17T15:13:44.042Z,93.75
2023-02-17T15:16:10.747Z,93.24
2023-02-17T15:18:37.398Z,91.43
2023-02-17T15:21:15.842Z,92.66
2023-02-17T15:23:42.193Z,92.84
2023-02-17T15:26:10.354Z,92.03
2023-02-17T15:28:36.767Z,91.76
2023-02-17T15:31:04.138Z,91.23
2023-02-17T15:33:30.576Z,92.33
2023-02-17T15:35:56.856Z,90.89
2023-02-17T15:38:23.978Z,89.95
2023-02-17T15:40:51.045Z,90.07
2023-02-17T15:43:19.575Z,90.58
2023-02-17T15:45:46.274Z,90.32
2023-02-17T15:48:17.864Z,90.41
2023-02-17T15:50:44.348Z,89.20
2023-02-17T15:53:10.681Z,89.59
2023-02-17T15:55:38.901Z,89.45
2023-02-17T15:58:06.465Z,89.34
2023-02-17T16:00:34.368Z,89.16
2023-02-17T16:03:00.724Z,89.13
2023-02-17T16:05:28.709Z,89.25
2023-02-17T16:07:55.184Z,89.77
2023-02-17T16:10:23.316Z,91.24
2023-02-17T16:12:50.735Z,90.90
2023-02-17T16:15:19.050Z,89.05
2023-02-17T16:17:47.551Z,90.00
2023-02-17T16:20:16.556Z,90.96
2023-02-17T16:22:43.486Z,90.76
2023-02-17T16:25:09.888Z,89.99
2023-02-17T16:27:36.780Z,88.47
2023-02-17T16:30:13.958Z,88.64
2023-02-17T16:32:40.457Z,87.37
2023-02-17T16:35:07.013Z,86.98
2023-02-17T16:37:33.539Z,88.19
2023-02-17T16:40:00.122Z,87.15
2023-02-17T16:42:26.501Z,87.62
2023-02-17T16:44:52.834Z,87.49
2023-02-17T16:47:20.846Z,87.70
2023-02-17T16:49:47.466Z,87.75
2023-02-17T16:52:22.573Z,87.03
2023-02-17T16:54:48.858Z,86.47
2023-02-17T16:57:18.481Z,85.64
2023-02-17T16:59:45.127Z,85.10
2023-02-17T17:02:12.020Z,84.30
2023-02-17T17:04:38.455Z,84.20
2023-02-17T17:07:04.848Z,84.99
2023-02-17T17:09:31.266Z,84.10
2023-02-17T17:11:57.784Z,82.78
2023-02-17T17:14:24.711Z,83.89
2023-02-17T17:16:52.220Z,82.03
2023-02-17T17:19:18.560Z,81.40
2023-02-17T17:21:44.941Z,81.12
2023-02-17T17:24:11.256Z,80.85
2023-02-17T17:26:39.819Z,81.51
2023-02-17T17:29:07.222Z,80.09
2023-02-17T17:31:33.679Z,79.42
2023-02-17T17:34:00.027Z,76.54
2023-02-17T17:36:52.787Z,76.26
2023-02-17T17:39:20.450Z,75.24
2023-02-17T17:41:47.219Z,74.58
2023-02-17T17:44:13.910Z,71.23
2023-02-17T17:46:40.581Z,70.16
2023-02-17T17:49:10.144Z,68.50
2023-02-17T17:51:37.265Z,66.88
2023-02-17T17:54:05.076Z,66.23
2023-02-17T17:56:33.046Z,66.79
2023-02-17T17:59:00.884Z,64.35
2023-02-17T18:01:27.655Z,65.39
2023-02-17T18:03:54.492Z,64.09
2023-02-17T18:06:34.302Z,64.70
2023-02-17T18:09:02.363Z,65.90
2023-02-17T18:11:28.998Z,64.97
2023-02-17T18:13:58.154Z,64.76
2023-02-17T18:16:27.124Z,67.25
2023-02-17T18:18:54.543Z,65.74
2023-02-17T18:21:20.917Z,67.59
2023-02-17T18:23:48.019Z,67.59
2023-02-17T18:26:14.885Z,67.03
2023-02-17T18:28:42.346Z,67.33
2023-02-17T18:31:13.251Z,68.19
2023-02-17T18:33:39.974Z,66.76
2023-02-17T18:36:10.271Z,67.72
2023-02-17T18:38:36.820Z,68.49
2023-02-17T18:41:03.380Z,67.08
2023-02-17T18:43:29.767Z,66.96
2023-02-17T18:45:56.130Z,68.51
2023-02-17T18:48:22.437Z,67.90
2023-02-17T18:50:50.431Z,68.05
2023-02-17T18:53:17.588Z,68.17
2023-02-17T18:55:44.413Z,69.00
2023-02-17T18:58:12.402Z,69.15
2023-02-17T19:00:38.859Z,67.77
2023-02-17T19:03:05.169Z,67.08
2023-02-17T19:05:31.597Z,67.13
2023-02-17T19:07:58.396Z,67.60
2023-02-17T19:10:24.726Z,67.54
2023-02-17T19:12:51.104Z,67.35
2023-02-17T19:15:20.754Z,65.83
2023-02-17T19:17:48.526Z,67.28
2023-02-17T19:20:16.859Z,67.34
2023-02-17T19:22:43.220Z,66.89
2023-02-17T19:25:09.660Z,68.15
2023-02-17T19:27:38.142Z,68.58
2023-02-17T19:30:04.808Z,67.45
2023-02-17T19:32:31.249Z,67.66
2023-02-17T19:34:57.771Z,66.79
2023-02-17T19:37:24.136Z,66.44
2023-02-17T19:39:50.506Z,66.08
2023-02-17T19:42:16.944Z,67.79
2023-02-17T19:44:43.313Z,67.05
2023-02-17T19:47:09.992Z,68.22
2023-02-17T19:49:36.447Z,66.57
2023-02-17T19:52:02.767Z,67.29
2023-02-17T19:54:29.205Z,66.14
2023-02-17T19:56:55.546Z,66.41
2023-02-17T19:59:21.881Z,67.42
2023-02-17T20:01:48.204Z,67.11
2023-02-17T20:04:14.972Z,65.60
2023-02-17T20:06:42.945Z,66.89
2023-02-17T20:09:11.280Z,66.29
2023-02-17T20:11:37.934Z,65.44
2023-02-17T20:14:04.507Z,65.44
2023-02-17T20:16:31.018Z,66.55
2023-02-17T20:18:59.539Z,66.84
2023-02-17T20:21:28.496Z,66.06
2023-02-17T20:23:55.058Z,65.68
2023-02-17T20:26:26.272Z,64.96
2023-02-17T20:28:52.718Z,66.42
2023-02-17T20:31:19.896Z,65.41
2023-02-17T20:33:46.696Z,66.71
2023-02-17T20:36:13.153Z,65.73
2023-02-17T20:38:40.491Z,65.46
2023-02-17T20:41:08.131Z,66.79
2023-02-17T20:43:35.458Z,66.35
2023-02-17T20:46:01.819Z,66.08
2023-02-17T20:48:28.248Z,66.43
2023-02-17T20:50:55.169Z,65.52
2023-02-17T20:53:21.497Z,66.16
2023-02-17T20:55:47.922Z,66.01
2023-02-17T20:58:14.477Z,66.35
2023-02-17T21:00:40.831Z,66.10
2023-02-17T21:03:07.290Z,65.23
2023-02-17T21:05:33.725Z,66.29
2023-02-17T21:08:00.040Z,66.00
2023-02-17T21:10:28.779Z,65.86
2023-02-17T21:12:55.124Z,66.06
2023-02-17T21:15:21.972Z,66.26
2023-02-17T21:17:48.952Z,66.80
2023-02-17T21:20:16.851Z,66.18
2023-02-17T21:22:43.232Z,65.81
2023-02-17T21:25:09.673Z,65.67
2023-02-17T21:27:36.319Z,65.73
2023-02-17T21:30:03.565Z,66.00
2023-02-17T21:32:29.898Z,65.60
2023-02-17T21:34:56.266Z,65.64
2023-02-17T21:37:22.672Z,65.78
2023-02-17T21:39:49.455Z,65.81
2023-02-17T21:42:35.903Z,65.90
2023-02-17T21:45:02.373Z,65.71
2023-02-17T21:47:28.663Z,66.15
2023-02-17T21:49:55.140Z,66.17
2023-02-17T21:52:21.996Z,65.41
2023-02-17T21:54:48.336Z,66.03
2023-02-17T21:57:14.646Z,66.25
2023-02-17T21:59:41.649Z,66.33
2023-02-17T22:02:10.356Z,65.00
2023-02-17T22:04:36.651Z,66.35
2023-02-17T22:07:03.007Z,65.05
2023-02-17T22:09:29.311Z,65.49
2023-02-17T22:11:55.710Z,64.15
2023-02-17T22:14:22.766Z,64.82
2023-02-17T22:16:49.270Z,66.18
2023-02-17T22:19:17.219Z,65.69
2023-02-17T22:21:44.368Z,64.94
2023-02-17T22:24:10.860Z,65.24
2023-02-17T22:26:37.589Z,64.81
2023-02-17T22:29:04.448Z,64.63
2023-02-17T22:31:31.356Z,64.80
2023-02-17T22:33:58.743Z,65.27
2023-02-17T22:36:27.284Z,65.76
2023-02-17T22:38:55.123Z,65.44
2023-02-17T22:41:22.993Z,65.60
2023-02-17T22:43:49.635Z,65.68
2023-02-17T22:46:18.056Z,64.88
2023-02-17T22:48:45.520Z,65.29
2023-02-17T22:51:13.937Z,65.51
2023-02-17T22:53:40.347Z,66.18
2023-02-17T22:56:07.745Z,65.75
2023-02-17T22:58:34.651Z,66.38
2023-02-17T23:01:30.320Z,65.90
2023-02-17T23:03:56.672Z,66.89
2023-02-17T23:06:24.847Z,65.97
2023-02-17T23:08:51.226Z,66.12
2023-02-17T23:11:18.549Z,65.88
2023-02-17T23:13:45.189Z,66.50
2023-02-17T23:16:19.036Z,66.18
2023-02-17T23:18:45.378Z,65.97
2023-02-17T23:21:12.844Z,65.34
2023-02-17T23:23:39.298Z,65.78
2023-02-17T23:26:06.005Z,66.39
2023-02-17T23:28:33.092Z,65.82
2023-02-17T23:30:59.463Z,66.30
2023-02-17T23:33:25.799Z,66.36
2023-02-17T23:35:52.108Z,66.33
2023-02-17T23:38:20.410Z,66.97
2023-02-17T23:40:51.087Z,67.01
2023-02-17T23:43:18.155Z,65.70
2023-02-17T23:45:44.635Z,66.62
2023-02-17T23:48:11.005Z,66.52
2023-02-17T23:50:37.325Z,66.28
2023-02-17T23:53:04.127Z,67.19
2023-02-17T23:55:30.454Z,67.15
2023-02-17T23:57:56.736Z,66.64
